sensor_id;sensor_type;location;lat;lon;timestamp;pressure;altitude;pressure_sealevel;temperature;humidity
33422;BME280;19763;55.798;37.782;2023-04-15T00:00:15;147782.66;;;1.84;29.46
33422;BME280;19763;55.798;37.782;2023-04-15T00:02:42;147762.31;;;1.76;29.48
33422;BME280;19763;55.798;37.782;2023-04-15T00:05:08;147787.78;;;1.86;29.45
33422;BME280;19763;55.798;37.782;2023-04-15T00:07:35;147724.09;;;1.60;29.39
33422;BME280;19763;55.798;37.782;2023-04-15T00:10:00;147683.34;;;1.44;29.55
33422;BME280;19763;55.798;37.782;2023-04-15T00:12:26;147669.34;;;1.38;30.05
33422;BME280;19763;55.798;37.782;2023-04-15T00:14:52;147750.81;;;1.71;29.98
33422;BME280;19763;55.798;37.782;2023-04-15T00:17:19;147677.03;;;1.41;30.01
33422;BME280;19763;55.798;37.782;2023-04-15T00:19:44;147715.19;;;1.57;30.29
33422;BME280;19763;55.798;37.782;2023-04-15T00:22:10;147716.47;;;1.57;29.93
33422;BME280;19763;55.798;37.782;2023-04-15T00:24:37;147679.53;;;1.42;30.33
33422;BME280;19763;55.798;37.782;2023-04-15T00:27:02;147715.19;;;1.57;29.83
33422;BME280;19763;55.798;37.782;2023-04-15T00:29:29;147710.09;;;1.54;30.02
33422;BME280;19763;55.798;37.782;2023-04-15T00:31:55;147679.53;;;1.42;30.36
33422;BME280;19763;55.798;37.782;2023-04-15T00:34:22;147632.47;;;1.23;30.22
33422;BME280;19763;55.798;37.782;2023-04-15T00:36:49;147651.53;;;1.31;30.64
33422;BME280;19763;55.798;37.782;2023-04-15T00:39:14;147656.66;;;1.33;30.06
33422;BME280;19763;55.798;37.782;2023-04-15T00:41:41;147617.22;;;1.17;30.66
33422;BME280;19763;55.798;37.782;2023-04-15T00:44:07;147603.19;;;1.11;30.43
33422;BME280;19763;55.798;37.782;2023-04-15T00:46:37;147638.84;;;1.26;30.13
33422;BME280;19763;55.798;37.782;2023-04-15T00:49:06;147629.91;;;1.22;29.81
33422;BME280;19763;55.798;37.782;2023-04-15T00:51:33;147573.91;;;0.99;30.70
33422;BME280;19763;55.798;37.782;2023-04-15T00:54:04;147626.09;;;1.20;30.25
33422;BME280;19763;55.798;37.782;2023-04-15T00:56:34;147587.91;;;1.05;30.18
33422;BME280;19763;55.798;37.782;2023-04-15T00:59:00;147624.84;;;1.20;30.49
33422;BME280;19763;55.798;37.782;2023-04-15T01:01:27;147579.03;;;1.01;30.63
33422;BME280;19763;55.798;37.782;2023-04-15T01:03:56;147561.22;;;0.94;30.80
33422;BME280;19763;55.798;37.782;2023-04-15T01:06:23;147576.47;;;1.00;31.00
33422;BME280;19763;55.798;37.782;2023-04-15T01:08:49;147510.28;;;0.74;30.87
33422;BME280;19763;55.798;37.782;2023-04-15T01:11:16;147552.28;;;0.91;31.13
33422;BME280;19763;55.798;37.782;2023-04-15T01:13:41;147500.09;;;0.69;30.60
33422;BME280;19763;55.798;37.782;2023-04-15T01:16:08;147562.47;;;0.95;31.15
33422;BME280;19763;55.798;37.782;2023-04-15T01:18:35;147542.09;;;0.86;31.18
33422;BME280;19763;55.798;37.782;2023-04-15T01:21:02;147576.47;;;1.00;30.89
33422;BME280;19763;55.798;37.782;2023-04-15T01:23:29;147544.66;;;0.88;30.52
33422;BME280;19763;55.798;37.782;2023-04-15T01:25:55;147554.84;;;0.92;31.19
33422;BME280;19763;55.798;37.782;2023-04-15T01:28:22;147539.53;;;0.85;31.31
33422;BME280;19763;55.798;37.782;2023-04-15T01:30:48;147514.09;;;0.75;30.95
33422;BME280;19763;55.798;37.782;2023-04-15T01:33:14;147538.28;;;0.85;30.86
33422;BME280;19763;55.798;37.782;2023-04-15T01:35:59;147531.91;;;0.82;31.02
33422;BME280;19763;55.798;37.782;2023-04-15T01:38:25;147489.94;;;0.65;31.35
33422;BME280;19763;55.798;37.782;2023-04-15T01:40:52;147533.22;;;0.83;31.28
33422;BME280;19763;55.798;37.782;2023-04-15T01:43:19;147540.84;;;0.86;31.31
33422;BME280;19763;55.798;37.782;2023-04-15T01:45:46;147505.22;;;0.72;32.11
33422;BME280;19763;55.798;37.782;2023-04-15T01:48:13;147495.03;;;0.67;31.36
33422;BME280;19763;55.798;37.782;2023-04-15T01:50:40;147470.88;;;0.58;31.33
33422;BME280;19763;55.798;37.782;2023-04-15T01:53:07;147472.13;;;0.58;31.41
33422;BME280;19763;55.798;37.782;2023-04-15T01:55:34;147454.31;;;0.51;32.06
33422;BME280;19763;55.798;37.782;2023-04-15T01:58:01;147478.50;;;0.61;31.72
33422;BME280;19763;55.798;37.782;2023-04-15T02:00:28;147447.94;;;0.48;32.15
33422;BME280;19763;55.798;37.782;2023-04-15T02:02:55;147456.88;;;0.52;31.99
33422;BME280;19763;55.798;37.782;2023-04-15T02:05:22;147465.81;;;0.56;31.70
33422;BME280;19763;55.798;37.782;2023-04-15T02:07:50;147468.31;;;0.57;31.92
33422;BME280;19763;55.798;37.782;2023-04-15T02:10:17;147460.69;;;0.54;31.65
33422;BME280;19763;55.798;37.782;2023-04-15T02:12:43;147463.25;;;0.55;32.40
33422;BME280;19763;55.798;37.782;2023-04-15T02:15:10;147465.81;;;0.56;31.58
33422;BME280;19763;55.798;37.782;2023-04-15T02:17:37;147478.50;;;0.61;32.00
33422;BME280;19763;55.798;37.782;2023-04-15T02:20:04;147455.63;;;0.51;31.28
33422;BME280;19763;55.798;37.782;2023-04-15T02:22:31;147461.94;;;0.54;32.39
33422;BME280;19763;55.798;37.782;2023-04-15T02:24:58;147495.03;;;0.67;32.45
33422;BME280;19763;55.798;37.782;2023-04-15T02:27:25;147460.69;;;0.54;31.77
33422;BME280;19763;55.798;37.782;2023-04-15T02:29:53;147464.50;;;0.55;32.11
33422;BME280;19763;55.798;37.782;2023-04-15T02:32:20;147437.81;;;0.44;31.94
33422;BME280;19763;55.798;37.782;2023-04-15T02:34:49;147430.16;;;0.41;32.34
33422;BME280;19763;55.798;37.782;2023-04-15T02:37:16;147442.88;;;0.46;31.82
33422;BME280;19763;55.798;37.782;2023-04-15T02:39:45;147440.31;;;0.45;32.32
33422;BME280;19763;55.798;37.782;2023-04-15T02:42:12;147378.03;;;0.20;32.59
33422;BME280;19763;55.798;37.782;2023-04-15T02:44:39;147384.38;;;0.23;32.38
33422;BME280;19763;55.798;37.782;2023-04-15T02:47:06;147380.56;;;0.21;31.87
33422;BME280;19763;55.798;37.782;2023-04-15T02:49:33;147404.72;;;0.31;32.51
33422;BME280;19763;55.798;37.782;2023-04-15T02:52:00;147408.53;;;0.32;32.12
33422;BME280;19763;55.798;37.782;2023-04-15T02:54:27;147389.47;;;0.25;31.79
33422;BME280;19763;55.798;37.782;2023-04-15T02:56:54;147402.16;;;0.30;31.86
33422;BME280;19763;55.798;37.782;2023-04-15T02:59:21;147442.88;;;0.46;31.96
33422;BME280;19763;55.798;37.782;2023-04-15T03:01:48;147404.72;;;0.31;32.49
33422;BME280;19763;55.798;37.782;2023-04-15T03:04:15;147456.88;;;0.52;31.79
33422;BME280;19763;55.798;37.782;2023-04-15T03:06:42;147414.91;;;0.35;32.70
33422;BME280;19763;55.798;37.782;2023-04-15T03:09:09;147475.94;;;0.60;32.18
33422;BME280;19763;55.798;37.782;2023-04-15T03:11:36;147455.63;;;0.51;32.12
33422;BME280;19763;55.798;37.782;2023-04-15T03:14:06;147454.31;;;0.51;32.54
33422;BME280;19763;55.798;37.782;2023-04-15T03:16:32;147421.25;;;0.38;31.88
33422;BME280;19763;55.798;37.782;2023-04-15T03:18:59;147416.16;;;0.36;32.88
33422;BME280;19763;55.798;37.782;2023-04-15T03:21:26;147463.25;;;0.55;32.33
33422;BME280;19763;55.798;37.782;2023-04-15T03:23:53;147425.06;;;0.39;32.15
33422;BME280;19763;55.798;37.782;2023-04-15T03:26:28;147412.34;;;0.34;32.63
33422;BME280;19763;55.798;37.782;2023-04-15T03:28:56;147372.94;;;0.18;32.73
33422;BME280;19763;55.798;37.782;2023-04-15T03:31:23;147442.88;;;0.46;32.00
33422;BME280;19763;55.798;37.782;2023-04-15T03:33:50;147463.25;;;0.55;32.16
33422;BME280;19763;55.798;37.782;2023-04-15T03:36:17;147453.06;;;0.50;32.72
33422;BME280;19763;55.798;37.782;2023-04-15T03:38:44;147409.84;;;0.33;31.82
33422;BME280;19763;55.798;37.782;2023-04-15T03:41:11;147418.72;;;0.37;31.83
33422;BME280;19763;55.798;37.782;2023-04-15T03:43:38;147395.84;;;0.27;33.15
33422;BME280;19763;55.798;37.782;2023-04-15T03:46:05;147428.88;;;0.41;32.50
33422;BME280;19763;55.798;37.782;2023-04-15T03:48:32;147467.06;;;0.56;32.81
33422;BME280;19763;55.798;37.782;2023-04-15T03:50:59;147514.09;;;0.75;31.74
33422;BME280;19763;55.798;37.782;2023-04-15T03:53:26;147420.00;;;0.37;31.97
33422;BME280;19763;55.798;37.782;2023-04-15T03:55:53;147455.63;;;0.51;32.16
33422;BME280;19763;55.798;37.782;2023-04-15T03:58:19;147474.69;;;0.59;32.76
33422;BME280;19763;55.798;37.782;2023-04-15T04:00:46;147547.22;;;0.89;31.67
33422;BME280;19763;55.798;37.782;2023-04-15T04:03:13;147533.22;;;0.83;32.45
33422;BME280;19763;55.798;37.782;2023-04-15T04:05:40;147535.72;;;0.84;32.02
33422;BME280;19763;55.798;37.782;2023-04-15T04:08:07;147525.59;;;0.80;31.79
33422;BME280;19763;55.798;37.782;2023-04-15T04:10:34;147496.28;;;0.68;31.90
33422;BME280;19763;55.798;37.782;2023-04-15T04:13:01;147549.72;;;0.90;32.29
33422;BME280;19763;55.798;37.782;2023-04-15T04:15:28;147534.47;;;0.83;31.96
33422;BME280;19763;55.798;37.782;2023-04-15T04:17:54;147529.41;;;0.81;32.01
33422;BME280;19763;55.798;37.782;2023-04-15T04:20:21;147523.03;;;0.79;31.96
33422;BME280;19763;55.798;37.782;2023-04-15T04:22:48;147502.66;;;0.71;31.45
33422;BME280;19763;55.798;37.782;2023-04-15T04:25:15;147486.13;;;0.64;31.63
33422;BME280;19763;55.798;37.782;2023-04-15T04:27:43;147529.41;;;0.81;32.67
33422;BME280;19763;55.798;37.782;2023-04-15T04:30:11;147559.91;;;0.94;31.18
33422;BME280;19763;55.798;37.782;2023-04-15T04:32:38;147538.28;;;0.85;31.53
33422;BME280;19763;55.798;37.782;2023-04-15T04:35:05;147577.72;;;1.01;31.41
33422;BME280;19763;55.798;37.782;2023-04-15T04:37:32;147628.66;;;1.22;31.10
33422;BME280;19763;55.798;37.782;2023-04-15T04:39:59;147666.84;;;1.37;31.86
33422;BME280;19763;55.798;37.782;2023-04-15T04:42:26;147707.53;;;1.53;31.38
33422;BME280;19763;55.798;37.782;2023-04-15T04:44:53;147612.09;;;1.15;30.97
33422;BME280;19763;55.798;37.782;2023-04-15T04:47:20;147692.28;;;1.47;31.43
33422;BME280;19763;55.798;37.782;2023-04-15T04:49:47;147743.19;;;1.68;31.27
33422;BME280;19763;55.798;37.782;2023-04-15T04:52:14;147796.66;;;1.89;31.26
33422;BME280;19763;55.798;37.782;2023-04-15T04:54:41;147726.66;;;1.61;30.27
33422;BME280;19763;55.798;37.782;2023-04-15T04:57:08;147712.66;;;1.55;30.66
33422;BME280;19763;55.798;37.782;2023-04-15T04:59:35;147727.91;;;1.62;30.90
33422;BME280;19763;55.798;37.782;2023-04-15T05:02:02;147789.03;;;1.86;31.16
33422;BME280;19763;55.798;37.782;2023-04-15T05:04:29;147763.56;;;1.76;30.26
33422;BME280;19763;55.798;37.782;2023-04-15T05:06:57;147731.75;;;1.63;29.96
33422;BME280;19763;55.798;37.782;2023-04-15T05:09:25;147782.66;;;1.84;30.06
33422;BME280;19763;55.798;37.782;2023-04-15T05:11:52;147811.97;;;1.96;29.76
33422;BME280;19763;55.798;37.782;2023-04-15T05:14:19;147901.13;;;2.32;30.10
33422;BME280;19763;55.798;37.782;2023-04-15T05:16:45;147898.56;;;2.31;30.47
33422;BME280;19763;55.798;37.782;2023-04-15T05:19:12;147903.69;;;2.33;29.79
33422;BME280;19763;55.798;37.782;2023-04-15T05:21:39;147991.59;;;2.68;29.79
33422;BME280;19763;55.798;37.782;2023-04-15T05:24:06;148061.69;;;2.97;30.19
33422;BME280;19763;55.798;37.782;2023-04-15T05:26:33;147902.38;;;2.32;29.28
33422;BME280;19763;55.798;37.782;2023-04-15T05:29:00;147868.00;;;2.18;29.02
33422;BME280;19763;55.798;37.782;2023-04-15T05:31:26;147911.31;;;2.36;29.12
33422;BME280;19763;55.798;37.782;2023-04-15T05:33:53;147954.63;;;2.53;29.66
33422;BME280;19763;55.798;37.782;2023-04-15T05:36:20;147975.00;;;2.62;29.30
33422;BME280;19763;55.798;37.782;2023-04-15T05:38:47;148056.56;;;2.94;28.77
33422;BME280;19763;55.798;37.782;2023-04-15T05:41:14;148014.50;;;2.78;29.24
33422;BME280;19763;55.798;37.782;2023-04-15T05:43:42;148023.44;;;2.81;28.81
33422;BME280;19763;55.798;37.782;2023-04-15T05:46:08;147969.94;;;2.59;28.53
33422;BME280;19763;55.798;37.782;2023-04-15T05:48:35;148010.69;;;2.76;28.50
33422;BME280;19763;55.798;37.782;2023-04-15T05:51:02;147901.13;;;2.32;28.75
33422;BME280;19763;55.798;37.782;2023-04-15T05:53:29;147961.00;;;2.56;28.34
33422;BME280;19763;55.798;37.782;2023-04-15T05:55:56;147991.59;;;2.68;28.58
33422;BME280;19763;55.798;37.782;2023-04-15T05:58:23;147964.81;;;2.57;28.30
33422;BME280;19763;55.798;37.782;2023-04-15T06:00:50;148012.00;;;2.76;28.09
33422;BME280;19763;55.798;37.782;2023-04-15T06:03:17;147967.38;;;2.58;28.14
33422;BME280;19763;55.798;37.782;2023-04-15T06:05:44;148064.22;;;2.98;28.54
33422;BME280;19763;55.798;37.782;2023-04-15T06:08:11;148138.16;;;3.27;28.29
33422;BME280;19763;55.798;37.782;2023-04-15T06:10:38;148010.69;;;2.76;27.83
33422;BME280;19763;55.798;37.782;2023-04-15T06:13:05;148026.00;;;2.82;28.11
33422;BME280;19763;55.798;37.782;2023-04-15T06:15:32;148059.13;;;2.96;27.71
33422;BME280;19763;55.798;37.782;2023-04-15T06:17:59;148130.50;;;3.24;27.30
33422;BME280;19763;55.798;37.782;2023-04-15T06:20:26;148186.59;;;3.47;27.24
33422;BME280;19763;55.798;37.782;2023-04-15T06:22:53;148215.94;;;3.59;27.32
33422;BME280;19763;55.798;37.782;2023-04-15T06:25:20;148212.09;;;3.57;27.67
33422;BME280;19763;55.798;37.782;2023-04-15T06:27:47;148166.19;;;3.39;27.27
33422;BME280;19763;55.798;37.782;2023-04-15T06:30:13;148241.47;;;3.69;27.35
33422;BME280;19763;55.798;37.782;2023-04-15T06:32:40;148193.00;;;3.50;27.47
33422;BME280;19763;55.798;37.782;2023-04-15T06:35:08;148121.59;;;3.21;27.27
33422;BME280;19763;55.798;37.782;2023-04-15T06:37:35;148177.72;;;3.43;27.30
33422;BME280;19763;55.798;37.782;2023-04-15T06:40:02;148255.50;;;3.75;27.21
33422;BME280;19763;55.798;37.782;2023-04-15T06:42:30;148250.38;;;3.73;26.87
33422;BME280;19763;55.798;37.782;2023-04-15T06:44:57;148268.22;;;3.80;26.96
33422;BME280;19763;55.798;37.782;2023-04-15T06:47:24;148347.34;;;4.12;26.76
33422;BME280;19763;55.798;37.782;2023-04-15T06:49:51;148390.72;;;4.29;26.45
33422;BME280;19763;55.798;37.782;2023-04-15T06:52:18;148310.31;;;3.97;25.86
33422;BME280;19763;55.798;37.782;2023-04-15T06:54:45;148133.06;;;3.25;26.92
33422;BME280;19763;55.798;37.782;2023-04-15T06:57:12;148307.75;;;3.96;26.72
33422;BME280;19763;55.798;37.782;2023-04-15T06:59:39;148371.53;;;4.22;26.71
33422;BME280;19763;55.798;37.782;2023-04-15T07:02:07;148394.53;;;4.31;26.06
33422;BME280;19763;55.798;37.782;2023-04-15T07:04:34;148411.13;;;4.38;26.66
33422;BME280;19763;55.798;37.782;2023-04-15T07:07:01;148411.13;;;4.38;25.67
33422;BME280;19763;55.798;37.782;2023-04-15T07:09:28;148455.78;;;4.56;25.89
33422;BME280;19763;55.798;37.782;2023-04-15T07:11:55;148317.97;;;4.00;25.77
33422;BME280;19763;55.798;37.782;2023-04-15T07:14:22;148344.78;;;4.11;25.69
33422;BME280;19763;55.798;37.782;2023-04-15T07:16:49;148397.09;;;4.32;25.79
33422;BME280;19763;55.798;37.782;2023-04-15T07:19:16;148403.44;;;4.35;25.42
33422;BME280;19763;55.798;37.782;2023-04-15T07:21:42;148537.47;;;4.89;24.97
33422;BME280;19763;55.798;37.782;2023-04-15T07:24:09;148550.25;;;4.94;24.56
33422;BME280;19763;55.798;37.782;2023-04-15T07:26:36;148596.22;;;5.12;24.89
33422;BME280;19763;55.798;37.782;2023-04-15T07:29:03;148867.09;;;6.21;24.55
33422;BME280;19763;55.798;37.782;2023-04-15T07:31:30;148870.94;;;6.23;23.83
33422;BME280;19763;55.798;37.782;2023-04-15T07:33:57;148840.25;;;6.11;23.29
33422;BME280;19763;55.798;37.782;2023-04-15T07:36:24;148956.56;;;6.57;23.20
33422;BME280;19763;55.798;37.782;2023-04-15T07:38:51;148881.16;;;6.27;23.42
33422;BME280;19763;55.798;37.782;2023-04-15T07:41:18;148965.47;;;6.61;22.92
33422;BME280;19763;55.798;37.782;2023-04-15T07:43:46;149052.44;;;6.96;22.65
33422;BME280;19763;55.798;37.782;2023-04-15T07:46:14;148835.16;;;6.09;22.16
33422;BME280;19763;55.798;37.782;2023-04-15T07:48:41;148813.38;;;6.00;22.98
33422;BME280;19763;55.798;37.782;2023-04-15T07:51:08;148752.03;;;5.75;23.24
33422;BME280;19763;55.798;37.782;2023-04-15T07:53:36;148718.81;;;5.62;22.76
33422;BME280;19763;55.798;37.782;2023-04-15T07:56:03;148790.38;;;5.91;23.04
33422;BME280;19763;55.798;37.782;2023-04-15T07:58:31;148916.94;;;6.42;22.83
33422;BME280;19763;55.798;37.782;2023-04-15T08:00:58;149047.34;;;6.94;22.58
33422;BME280;19763;55.798;37.782;2023-04-15T08:03:25;149111.28;;;7.20;22.88
33422;BME280;19763;55.798;37.782;2023-04-15T08:05:52;148886.25;;;6.29;22.83
33422;BME280;19763;55.798;37.782;2023-04-15T08:08:19;148845.34;;;6.13;22.61
33422;BME280;19763;55.798;37.782;2023-04-15T08:10:46;148804.41;;;5.96;23.15
33422;BME280;19763;55.798;37.782;2023-04-15T08:13:13;148681.75;;;5.47;23.29
33422;BME280;19763;55.798;37.782;2023-04-15T08:15:40;148805.69;;;5.97;23.10
33422;BME280;19763;55.798;37.782;2023-04-15T08:18:07;148769.91;;;5.82;22.66
33422;BME280;19763;55.798;37.782;2023-04-15T08:20:34;148789.09;;;5.90;22.15
33422;BME280;19763;55.798;37.782;2023-04-15T08:23:01;148878.59;;;6.26;22.77
33422;BME280;19763;55.798;37.782;2023-04-15T08:25:28;148863.28;;;6.20;22.40
33422;BME280;19763;55.798;37.782;2023-04-15T08:27:55;148906.72;;;6.37;22.71
33422;BME280;19763;55.798;37.782;2023-04-15T08:30:26;148732.88;;;5.67;22.38
33422;BME280;19763;55.798;37.782;2023-04-15T08:32:53;148850.47;;;6.15;22.15
33422;BME280;19763;55.798;37.782;2023-04-15T08:35:20;148847.91;;;6.14;22.55
33422;BME280;19763;55.798;37.782;2023-04-15T08:37:47;148904.13;;;6.36;21.94
33422;BME280;19763;55.798;37.782;2023-04-15T08:40:14;148809.56;;;5.98;22.17
33422;BME280;19763;55.798;37.782;2023-04-15T08:42:44;148818.53;;;6.02;22.45
33422;BME280;19763;55.798;37.782;2023-04-15T08:45:12;148808.28;;;5.98;21.23
33422;BME280;19763;55.798;37.782;2023-04-15T08:47:40;148883.69;;;6.28;20.72
33422;BME280;19763;55.798;37.782;2023-04-15T08:50:09;148928.44;;;6.46;21.42
33422;BME280;19763;55.798;37.782;2023-04-15T08:52:37;148919.47;;;6.43;21.33
33422;BME280;19763;55.798;37.782;2023-04-15T08:55:07;149061.44;;;7.00;21.19
33422;BME280;19763;55.798;37.782;2023-04-15T08:57:35;149147.09;;;7.34;20.56
33422;BME280;19763;55.798;37.782;2023-04-15T09:00:04;148959.13;;;6.59;21.10
33422;BME280;19763;55.798;37.782;2023-04-15T09:02:32;149030.72;;;6.87;21.82
33422;BME280;19763;55.798;37.782;2023-04-15T09:04:59;149188.00;;;7.51;20.84
33422;BME280;19763;55.798;37.782;2023-04-15T09:07:26;149080.59;;;7.07;21.28
33422;BME280;19763;55.798;37.782;2023-04-15T09:09:53;148970.63;;;6.63;21.06
33422;BME280;19763;55.798;37.782;2023-04-15T09:12:20;149000.00;;;6.75;21.29
33422;BME280;19763;55.798;37.782;2023-04-15T09:14:47;148861.97;;;6.19;21.50
33422;BME280;19763;55.798;37.782;2023-04-15T09:17:18;148966.78;;;6.62;21.29
33422;BME280;19763;55.798;37.782;2023-04-15T09:19:46;149078.00;;;7.06;21.47
33422;BME280;19763;55.798;37.782;2023-04-15T09:22:13;149168.84;;;7.43;21.09
33422;BME280;19763;55.798;37.782;2023-04-15T09:24:40;149047.34;;;6.94;20.54
33422;BME280;19763;55.798;37.782;2023-04-15T09:27:08;149033.28;;;6.88;20.74
33422;BME280;19763;55.798;37.782;2023-04-15T09:29:35;149080.59;;;7.07;21.30
33422;BME280;19763;55.798;37.782;2023-04-15T09:32:12;148915.63;;;6.41;21.47
33422;BME280;19763;55.798;37.782;2023-04-15T09:34:40;148991.09;;;6.71;21.21
33422;BME280;19763;55.798;37.782;2023-04-15T09:37:07;148933.53;;;6.48;21.90
33422;BME280;19763;55.798;37.782;2023-04-15T09:39:49;148997.44;;;6.74;21.20
33422;BME280;19763;55.798;37.782;2023-04-15T09:42:17;148993.63;;;6.72;20.31
33422;BME280;19763;55.798;37.782;2023-04-15T09:44:50;149097.22;;;7.14;20.93
33422;BME280;19763;55.798;37.782;2023-04-15T09:47:30;149166.28;;;7.42;19.75
33422;BME280;19763;55.798;37.782;2023-04-15T09:49:58;149113.81;;;7.21;19.92
33422;BME280;19763;55.798;37.782;2023-04-15T09:52:25;149024.31;;;6.85;20.67
33422;BME280;19763;55.798;37.782;2023-04-15T09:54:53;149044.78;;;6.93;20.59
33422;BME280;19763;55.798;37.782;2023-04-15T09:57:22;149053.72;;;6.97;20.47
33422;BME280;19763;55.798;37.782;2023-04-15T09:59:50;149113.81;;;7.21;20.09
33422;BME280;19763;55.798;37.782;2023-04-15T10:02:18;149103.59;;;7.17;19.99
33422;BME280;19763;55.798;37.782;2023-04-15T10:04:48;149113.81;;;7.21;19.44
33422;BME280;19763;55.798;37.782;2023-04-15T10:07:16;149076.75;;;7.06;19.48
33422;BME280;19763;55.798;37.782;2023-04-15T10:09:47;149087.00;;;7.10;19.76
33422;BME280;19763;55.798;37.782;2023-04-15T10:12:18;149103.59;;;7.17;20.01
33422;BME280;19763;55.798;37.782;2023-04-15T10:14:57;149133.03;;;7.29;20.12
33422;BME280;19763;55.798;37.782;2023-04-15T10:17:29;149266.06;;;7.82;20.31
33422;BME280;19763;55.798;37.782;2023-04-15T10:20:00;149326.22;;;8.06;20.24
33422;BME280;19763;55.798;37.782;2023-04-15T10:22:29;149351.84;;;8.17;19.96
33422;BME280;19763;55.798;37.782;2023-04-15T10:24:56;149363.38;;;8.21;19.66
33422;BME280;19763;55.798;37.782;2023-04-15T10:27:23;149254.56;;;7.77;19.01
33422;BME280;19763;55.798;37.782;2023-04-15T10:29:50;149342.88;;;8.13;18.97
33422;BME280;19763;55.798;37.782;2023-04-15T10:32:19;149340.28;;;8.12;18.76
33422;BME280;19763;55.798;37.782;2023-04-15T10:34:48;149254.56;;;7.77;19.48
33422;BME280;19763;55.798;37.782;2023-04-15T10:37:21;149344.13;;;8.13;20.28
33422;BME280;19763;55.798;37.782;2023-04-15T10:39:48;149396.63;;;8.35;19.63
33422;BME280;19763;55.798;37.782;2023-04-15T10:42:17;149272.47;;;7.85;19.90
33422;BME280;19763;55.798;37.782;2023-04-15T10:44:48;149262.22;;;7.81;19.07
33422;BME280;19763;55.798;37.782;2023-04-15T10:47:19;149315.97;;;8.02;20.15
33422;BME280;19763;55.798;37.782;2023-04-15T10:49:48;149315.97;;;8.02;19.02
33422;BME280;19763;55.798;37.782;2023-04-15T10:52:17;149374.88;;;8.26;19.30
33422;BME280;19763;55.798;37.782;2023-04-15T10:54:48;149382.53;;;8.29;19.65
33422;BME280;19763;55.798;37.782;2023-04-15T10:57:23;149426.16;;;8.46;20.22
33422;BME280;19763;55.798;37.782;2023-04-15T11:00:02;149483.75;;;8.70;19.70
33422;BME280;19763;55.798;37.782;2023-04-15T11:05:22;149477.34;;;8.67;19.44
33422;BME280;19763;55.798;37.782;2023-04-15T11:07:56;149528.56;;;8.88;18.91
33422;BME280;19763;55.798;37.782;2023-04-15T11:13:01;149472.25;;;8.65;19.37
33422;BME280;19763;55.798;37.782;2023-04-15T11:18:14;149481.19;;;8.69;19.16
33422;BME280;19763;55.798;37.782;2023-04-15T11:20:43;149600.31;;;9.17;20.17
33422;BME280;19763;55.798;37.782;2023-04-15T11:23:11;149451.75;;;8.57;19.67
33422;BME280;19763;55.798;37.782;2023-04-15T11:25:38;149554.22;;;8.98;19.21
33422;BME280;19763;55.798;37.782;2023-04-15T11:28:05;149529.88;;;8.88;18.66
33422;BME280;19763;55.798;37.782;2023-04-15T11:30:34;149567.00;;;9.03;19.62
33422;BME280;19763;55.798;37.782;2023-04-15T11:33:04;149590.06;;;9.12;19.25
33422;BME280;19763;55.798;37.782;2023-04-15T11:35:32;149572.13;;;9.05;18.88
33422;BME280;19763;55.798;37.782;2023-04-15T11:38:07;149531.13;;;8.89;19.79
33422;BME280;19763;55.798;37.782;2023-04-15T11:40:35;149645.13;;;9.35;19.55
33422;BME280;19763;55.798;37.782;2023-04-15T11:43:10;149627.19;;;9.27;18.39
33422;BME280;19763;55.798;37.782;2023-04-15T11:45:58;149505.53;;;8.78;19.05
33422;BME280;19763;55.798;37.782;2023-04-15T11:48:28;149591.34;;;9.13;19.64
33422;BME280;19763;55.798;37.782;2023-04-15T11:50:57;149625.94;;;9.27;19.32
33422;BME280;19763;55.798;37.782;2023-04-15T11:53:38;149625.94;;;9.27;19.44
33422;BME280;19763;55.798;37.782;2023-04-15T11:56:06;149627.19;;;9.27;19.32
33422;BME280;19763;55.798;37.782;2023-04-15T11:58:34;149669.47;;;9.44;19.63
33422;BME280;19763;55.798;37.782;2023-04-15T12:01:05;149641.28;;;9.33;19.27
33422;BME280;19763;55.798;37.782;2023-04-15T12:03:45;149681.00;;;9.49;19.12
33422;BME280;19763;55.798;37.782;2023-04-15T12:06:12;149690.00;;;9.53;19.67
33422;BME280;19763;55.798;37.782;2023-04-15T12:11:38;149670.78;;;9.45;19.72
33422;BME280;19763;55.798;37.782;2023-04-15T12:14:08;149619.50;;;9.24;19.37
33422;BME280;19763;55.798;37.782;2023-04-15T12:16:37;149641.28;;;9.33;19.76
33422;BME280;19763;55.798;37.782;2023-04-15T12:19:09;149695.09;;;9.55;19.55
33422;BME280;19763;55.798;37.782;2023-04-15T12:21:37;149691.25;;;9.53;19.46
33422;BME280;19763;55.798;37.782;2023-04-15T12:24:05;149698.94;;;9.56;18.94
33422;BME280;19763;55.798;37.782;2023-04-15T12:26:36;149625.94;;;9.27;19.37
33422;BME280;19763;55.798;37.782;2023-04-15T12:29:07;149659.22;;;9.40;19.68
33422;BME280;19763;55.798;37.782;2023-04-15T12:31:34;149765.59;;;9.83;20.23
33422;BME280;19763;55.798;37.782;2023-04-15T12:34:00;149743.81;;;9.74;20.11
33422;BME280;19763;55.798;37.782;2023-04-15T12:36:27;149661.81;;;9.41;18.89
33422;BME280;19763;55.798;37.782;2023-04-15T12:38:53;149660.53;;;9.41;19.83
33422;BME280;19763;55.798;37.782;2023-04-15T12:41:22;149565.72;;;9.03;19.54
33422;BME280;19763;55.798;37.782;2023-04-15T12:43:49;149597.75;;;9.15;20.04
33422;BME280;19763;55.798;37.782;2023-04-15T12:46:15;149661.81;;;9.41;19.53
33422;BME280;19763;55.798;37.782;2023-04-15T12:48:41;149691.25;;;9.53;20.11
33422;BME280;19763;55.798;37.782;2023-04-15T12:51:06;149746.38;;;9.75;19.48
33422;BME280;19763;55.798;37.782;2023-04-15T12:53:32;149705.34;;;9.59;20.11
33422;BME280;19763;55.798;37.782;2023-04-15T12:55:58;149724.59;;;9.66;20.17
33422;BME280;19763;55.798;37.782;2023-04-15T12:58:24;149747.66;;;9.76;19.21
33422;BME280;19763;55.798;37.782;2023-04-15T13:00:49;149745.06;;;9.75;19.48
33422;BME280;19763;55.798;37.782;2023-04-15T13:03:15;149816.88;;;10.04;19.15